createdAt,value
2018-06-18T00:00:51.747Z,43.95
2018-06-18T00:01:54.242Z,43.70
2018-06-18T00:02:52.240Z,43.70
2018-06-18T00:03:52.242Z,43.46
2018-06-18T00:04:52.242Z,43.70
2018-06-18T00:05:54.741Z,43.46
2018-06-18T00:06:52.743Z,44.19
2018-06-18T00:07:52.742Z,44.92
2018-06-18T00:08:52.743Z,43.21
2018-06-18T00:09:53.242Z,43.46
2018-06-18T00:10:54.686Z,44.68
2018-06-18T00:11:53.246Z,49.56
2018-06-18T00:12:53.242Z,43.46
2018-06-18T00:13:53.744Z,43.46
2018-06-18T00:14:53.744Z,43.46
2018-06-18T00:15:53.095Z,83.01
2018-06-18T00:16:53.740Z,43.21
2018-06-18T00:17:53.365Z,43.21
2018-06-18T00:18:53.467Z,43.46
2018-06-18T00:19:54.242Z,43.46
2018-06-18T00:20:54.242Z,43.46
2018-06-18T00:21:54.750Z,62.01
2018-06-18T00:22:53.967Z,81.30
2018-06-18T00:23:54.743Z,44.68
2018-06-18T00:24:54.742Z,48.10
2018-06-18T00:25:55.242Z,54.44
2018-06-18T00:26:55.242Z,43.70
2018-06-18T00:28:16.242Z,43.70
2018-06-18T00:28:55.242Z,45.17
2018-06-18T00:29:55.742Z,45.65
2018-06-18T00:30:55.740Z,43.70
2018-06-18T00:31:55.748Z,43.46
2018-06-18T00:32:55.752Z,43.46
2018-06-18T00:33:56.243Z,44.19
2018-06-18T00:34:56.243Z,43.46
2018-06-18T00:35:56.251Z,43.21
2018-06-18T00:36:56.276Z,47.12
2018-06-18T00:37:56.742Z,43.46
2018-06-18T00:38:56.742Z,43.46
2018-06-18T00:39:56.097Z,43.21
2018-06-18T00:40:56.743Z,44.92
2018-06-18T00:41:57.256Z,43.46
2018-06-18T00:42:57.242Z,43.46
2018-06-18T00:43:57.243Z,43.46
2018-06-18T00:44:57.244Z,43.70
2018-06-18T00:45:57.751Z,44.68
2018-06-18T00:46:59.741Z,43.46
2018-06-18T00:47:57.742Z,43.70
2018-06-18T00:48:57.743Z,43.46
2018-06-18T00:49:58.244Z,43.70
2018-06-18T00:50:57.466Z,44.43
2018-06-18T00:51:58.243Z,44.92
2018-06-18T00:53:01.675Z,43.46
2018-06-18T00:53:58.743Z,43.46
2018-06-18T00:54:58.743Z,43.70
2018-06-18T00:55:58.750Z,43.46
2018-06-18T00:56:58.742Z,43.70
2018-06-18T00:57:59.242Z,43.46
2018-06-18T00:58:59.244Z,43.70
2018-06-18T00:59:58.589Z,44.92
2018-06-18T01:01:20.262Z,43.95
2018-06-18T01:01:58.739Z,82.03
2018-06-18T01:02:58.851Z,62.26
2018-06-18T01:03:59.743Z,45.90
2018-06-18T01:04:59.742Z,43.70
2018-06-18T01:05:59.743Z,43.95
2018-06-18T01:07:00.242Z,44.19
2018-06-18T01:08:15.177Z,43.70
2018-06-18T01:09:00.242Z,43.70
2018-06-18T01:10:00.242Z,43.70
2018-06-18T01:11:00.742Z,43.46
2018-06-18T01:12:21.743Z,43.70
2018-06-18T01:13:00.750Z,43.70
2018-06-18T01:14:00.742Z,43.95
2018-06-18T01:15:22.242Z,43.70
2018-06-18T01:16:02.240Z,43.70
2018-06-18T01:17:00.592Z,43.70
2018-06-18T01:18:01.238Z,49.32
2018-06-18T01:19:01.742Z,56.64
2018-06-18T01:20:01.741Z,45.17
2018-06-18T01:21:22.742Z,43.70
2018-06-18T01:22:07.748Z,43.46
2018-06-18T01:23:23.245Z,43.46
2018-06-18T01:24:23.242Z,43.46
2018-06-18T01:25:09.239Z,44.19
2018-06-18T01:26:03.183Z,50.05
2018-06-18T01:27:04.753Z,43.46
2018-06-18T01:28:16.743Z,44.92
2018-06-18T01:29:23.742Z,43.46
2018-06-18T01:30:02.742Z,43.46
2018-06-18T01:31:03.746Z,44.68
2018-06-18T01:32:03.251Z,82.52
2018-06-18T01:33:17.242Z,43.46
2018-06-18T01:34:24.247Z,43.46
2018-06-18T01:35:24.242Z,43.46
2018-06-18T01:36:04.708Z,43.70
2018-06-18T01:37:03.752Z,43.70
2018-06-18T01:38:03.741Z,44.19
2018-06-18T01:39:24.741Z,44.92
2018-06-18T01:40:04.242Z,45.17
2018-06-18T01:41:25.242Z,43.70
2018-06-18T01:42:04.244Z,43.70
2018-06-18T01:43:05.241Z,45.65
2018-06-18T01:44:04.744Z,43.70
2018-06-18T01:45:04.742Z,43.70
2018-06-18T01:46:04.742Z,43.70
2018-06-18T01:47:04.742Z,43.70
2018-06-18T01:48:05.242Z,43.46
2018-06-18T01:49:05.242Z,45.17
2018-06-18T01:50:26.242Z,45.65
2018-06-18T01:51:05.242Z,43.70
2018-06-18T01:52:04.841Z,44.92
2018-06-18T01:53:05.745Z,44.19
2018-06-18T01:54:05.749Z,43.70
2018-06-18T01:55:05.742Z,44.19
2018-06-18T01:56:06.244Z,44.43
2018-06-18T01:57:06.249Z,43.70
2018-06-18T01:58:06.247Z,48.34
2018-06-18T01:59:05.716Z,52.00
2018-06-18T02:00:06.743Z,48.58
2018-06-18T02:01:06.742Z,43.95
2018-06-18T02:02:06.742Z,43.70
2018-06-18T02:03:06.749Z,43.95
2018-06-18T02:04:08.241Z,43.70
2018-06-18T02:05:28.241Z,45.17
2018-06-18T02:06:07.251Z,46.14
2018-06-18T02:07:07.242Z,47.61
2018-06-18T02:08:07.743Z,50.29
2018-06-18T02:09:07.742Z,51.51
2018-06-18T02:10:07.746Z,48.58
2018-06-18T02:11:07.742Z,46.88
2018-06-18T02:12:08.241Z,48.58
2018-06-18T02:13:07.466Z,47.85
2018-06-18T02:14:08.250Z,48.34
2018-06-18T02:15:29.258Z,48.58
2018-06-18T02:16:09.751Z,51.03
2018-06-18T02:17:08.782Z,54.44
2018-06-18T02:18:08.137Z,54.69
2018-06-18T02:19:08.740Z,54.44
2018-06-18T02:20:08.338Z,53.71
2018-06-18T02:21:09.242Z,52.73
2018-06-18T02:22:08.588Z,51.76
2018-06-18T02:23:09.237Z,49.56
2018-06-18T02:24:09.805Z,83.01
2018-06-18T02:25:11.174Z,59.57
2018-06-18T02:26:09.742Z,50.78
2018-06-18T02:27:09.742Z,50.05
2018-06-18T02:28:09.747Z,49.07
2018-06-18T02:29:12.674Z,50.05
2018-06-18T02:30:10.242Z,49.32
2018-06-18T02:31:10.243Z,50.05
2018-06-18T02:32:10.243Z,83.01
2018-06-18T02:33:31.742Z,53.22
2018-06-18T02:34:10.746Z,49.56
2018-06-18T02:35:10.742Z,85.21
2018-06-18T02:36:10.742Z,58.35
2018-06-18T02:37:11.252Z,51.51
2018-06-18T02:38:11.249Z,56.15
2018-06-18T02:39:11.242Z,58.11
2018-06-18T02:40:11.245Z,57.62
2018-06-18T02:41:11.747Z,57.62
2018-06-18T02:42:11.743Z,59.08
2018-06-18T02:43:11.742Z,60.55
2018-06-18T02:44:11.741Z,58.35
2018-06-18T02:45:12.242Z,68.12
2018-06-18T02:48:43.631Z,62.26
2018-06-18T02:49:43.631Z,58.11
2018-06-18T02:53:14.719Z,80.81
2018-06-18T02:54:15.385Z,59.08
2018-06-18T02:55:15.879Z,58.59
2018-06-18T02:56:15.889Z,56.88
2018-06-18T02:57:15.882Z,53.47
2018-06-18T02:58:15.879Z,52.49
2018-06-18T02:59:16.377Z,64.94
2018-06-18T03:02:47.755Z,49.56
2018-06-18T03:03:47.754Z,49.32
2018-06-18T03:04:48.255Z,52.25
2018-06-18T03:05:48.258Z,51.03
2018-06-18T03:06:48.261Z,79.59
2018-06-18T03:07:48.264Z,54.20
2018-06-18T03:08:47.858Z,84.96
2018-06-18T03:09:48.754Z,49.56
2018-06-18T03:10:48.756Z,52.49
2018-06-18T03:11:48.760Z,81.30
2018-06-18T03:12:50.186Z,57.13
2018-06-18T03:13:49.754Z,82.03
2018-06-18T03:14:49.263Z,83.01
2018-06-18T03:15:49.254Z,82.52
2018-06-18T03:16:49.755Z,58.59
2018-06-18T03:17:49.764Z,84.47
2018-06-18T03:18:49.755Z,72.27
2018-06-18T03:19:49.757Z,69.09
2018-06-18T03:21:11.255Z,79.83
2018-06-18T03:22:11.260Z,80.08
2018-06-18T03:22:49.611Z,50.54
2018-06-18T03:23:50.254Z,83.74
2018-06-18T03:24:50.765Z,79.35
2018-06-18T03:25:50.000Z,52.00
2018-06-18T03:26:50.104Z,79.10
2018-06-18T03:27:52.754Z,49.80
2018-06-18T03:28:57.254Z,53.71
2018-06-18T03:29:51.256Z,80.57
2018-06-18T03:30:51.255Z,47.85
2018-06-18T03:31:52.185Z,47.85
2018-06-18T03:33:12.754Z,49.32
2018-06-18T03:33:51.755Z,52.49
2018-06-18T03:34:51.753Z,85.94
2018-06-18T03:35:51.758Z,52.98
2018-06-18T03:36:52.253Z,83.01
2018-06-18T03:37:52.259Z,83.50
2018-06-18T03:38:52.254Z,83.74
2018-06-18T03:39:52.253Z,51.03
2018-06-18T03:40:54.755Z,50.05
2018-06-18T03:41:52.754Z,63.23
2018-06-18T03:42:52.773Z,82.03
2018-06-18T03:43:52.753Z,86.91
2018-06-18T03:45:14.253Z,81.30
2018-06-18T03:45:53.255Z,85.94
2018-06-18T03:47:14.253Z,83.01
2018-06-18T03:47:53.259Z,86.67
2018-06-18T03:48:55.751Z,66.16
2018-06-18T03:49:52.974Z,64.21
2018-06-18T03:50:53.753Z,85.45
2018-06-18T03:51:53.758Z,49.56
2018-06-18T03:52:54.253Z,80.81
2018-06-18T03:53:54.258Z,79.59
2018-06-18T03:54:54.253Z,56.40
2018-06-18T03:55:55.256Z,82.76
2018-06-18T03:59:26.001Z,87.89
2018-06-18T04:00:27.996Z,53.71
2018-06-18T04:01:32.496Z,83.50
2018-06-18T04:02:28.502Z,51.27
2018-06-18T04:03:26.502Z,82.28
2018-06-18T04:04:26.507Z,81.79
2018-06-18T04:05:27.012Z,83.50
2018-06-18T04:06:29.929Z,83.74
2018-06-18T04:07:26.997Z,49.07
2018-06-18T04:08:26.995Z,83.25
2018-06-18T04:09:28.495Z,78.13
2018-06-18T04:10:26.725Z,59.08
2018-06-18T04:11:27.496Z,46.63
2018-06-18T04:12:28.495Z,49.32
2018-06-18T04:13:27.996Z,49.56
2018-06-18T04:14:27.996Z,81.30
2018-06-18T04:15:27.996Z,52.00
2018-06-18T04:16:27.996Z,50.78
2018-06-18T04:17:28.497Z,85.69
2018-06-18T04:18:28.496Z,81.79
2018-06-18T04:19:28.550Z,84.47
2018-06-18T04:20:28.504Z,61.77
2018-06-18T04:21:50.001Z,82.52
2018-06-18T04:22:28.996Z,81.54
2018-06-18T04:23:29.995Z,86.43
2018-06-18T04:24:29.006Z,71.78
2018-06-18T04:25:29.496Z,84.96
2018-06-18T04:26:32.929Z,75.68
2018-06-18T04:27:29.496Z,84.96
2018-06-18T04:28:31.929Z,82.52
2018-06-18T04:29:50.995Z,84.23
2018-06-18T04:33:02.717Z,82.76
2018-06-18T04:34:01.263Z,78.61
2018-06-18T04:35:01.750Z,83.25
2018-06-18T04:36:02.721Z,69.34
2018-06-18T04:37:01.071Z,84.47
2018-06-18T04:38:01.753Z,84.47
2018-06-18T04:39:01.841Z,83.98
2018-06-18T04:40:02.261Z,83.98
2018-06-18T04:41:23.255Z,83.98
2018-06-18T04:42:03.254Z,50.78
2018-06-18T04:43:08.255Z,58.11
2018-06-18T04:44:02.755Z,80.81
2018-06-18T04:45:08.755Z,84.47
2018-06-18T04:46:02.756Z,79.83
2018-06-18T04:47:02.755Z,83.01
2018-06-18T04:48:09.258Z,55.66
2018-06-18T04:49:04.687Z,82.03
2018-06-18T04:50:03.255Z,78.86
2018-06-18T04:51:02.742Z,83.50
2018-06-18T04:52:03.751Z,85.45
2018-06-18T04:53:02.982Z,49.07
2018-06-18T04:54:03.759Z,82.28
2018-06-18T04:55:03.754Z,83.98
2018-06-18T04:56:04.255Z,83.01
2018-06-18T04:57:25.291Z,81.05
2018-06-18T04:58:03.650Z,65.43
2018-06-18T04:59:04.255Z,82.52
2018-06-18T05:02:36.018Z,81.79
2018-06-18T05:03:36.021Z,58.59
2018-06-18T05:04:36.517Z,53.71
2018-06-18T05:05:36.512Z,83.74
2018-06-18T05:06:36.517Z,78.61
2018-06-18T05:07:36.527Z,83.01
2018-06-18T05:11:08.287Z,81.79
2018-06-18T05:12:08.294Z,85.69
2018-06-18T05:13:07.889Z,82.76
2018-06-18T05:14:08.785Z,85.21
2018-06-18T05:15:08.173Z,75.20
2018-06-18T05:16:08.788Z,81.54
2018-06-18T05:17:11.285Z,83.98
2018-06-18T05:18:08.508Z,82.28
2018-06-18T05:19:09.285Z,84.47
2018-06-18T05:20:08.767Z,65.92
2018-06-18T05:21:09.796Z,57.86
2018-06-18T05:22:09.786Z,85.94
2018-06-18T05:23:09.718Z,83.25
2018-06-18T05:24:09.786Z,80.57
2018-06-18T05:25:10.293Z,84.47
2018-06-18T05:26:10.286Z,80.57
2018-06-18T05:27:10.286Z,80.57
2018-06-18T05:28:10.286Z,84.47
2018-06-18T05:29:09.885Z,83.74
2018-06-18T05:30:10.787Z,81.79
2018-06-18T05:31:10.789Z,82.52
2018-06-18T05:32:10.790Z,82.03
2018-06-18T05:33:17.289Z,82.03
2018-06-18T05:34:32.287Z,82.03
2018-06-18T05:35:11.288Z,80.32
2018-06-18T05:36:12.754Z,80.57
2018-06-18T05:39:43.022Z,48.34
2018-06-18T05:41:04.953Z,81.54
2018-06-18T05:41:43.529Z,82.52
2018-06-18T05:42:45.005Z,82.28
2018-06-18T05:43:57.554Z,82.76
2018-06-18T05:44:58.519Z,82.03
2018-06-18T05:46:04.521Z,80.08
2018-06-18T05:49:36.286Z,82.03
2018-06-18T05:50:15.288Z,83.01
2018-06-18T05:56:18.563Z,83.50
2018-06-18T05:57:25.996Z,83.74
2018-06-18T06:00:50.314Z,83.50
2018-06-18T06:01:52.313Z,83.01
2018-06-18T06:02:49.918Z,85.45
2018-06-18T06:03:50.812Z,83.50
2018-06-18T06:05:11.817Z,58.35
2018-06-18T06:05:50.809Z,82.52
2018-06-18T06:06:55.241Z,58.84
2018-06-18T06:07:56.741Z,80.08
2018-06-18T06:08:51.319Z,84.23
2018-06-18T06:09:51.314Z,81.05
2018-06-18T06:11:12.812Z,67.87
2018-06-18T06:11:51.807Z,80.81
2018-06-18T06:12:53.263Z,80.57
2018-06-18T06:13:51.256Z,83.25
2018-06-18T06:17:23.513Z,72.75
2018-06-18T06:18:23.521Z,82.03
2018-06-18T06:21:55.284Z,82.52
2018-06-18T06:22:55.290Z,81.30
2018-06-18T06:23:55.775Z,82.52
2018-06-18T06:27:27.676Z,82.28
2018-06-18T06:28:27.689Z,80.08
2018-06-18T06:29:28.186Z,84.96
2018-06-18T06:30:28.171Z,83.50
2018-06-18T06:31:28.174Z,83.98
2018-06-18T06:32:28.169Z,79.10
2018-06-18T06:33:28.165Z,81.79
2018-06-18T06:34:49.666Z,80.32
2018-06-18T06:35:28.666Z,82.03
2018-06-18T06:36:28.666Z,80.81
2018-06-18T06:37:28.673Z,84.23
2018-06-18T06:38:49.278Z,81.79
2018-06-18T06:39:29.176Z,80.32
2018-06-18T06:40:29.249Z,82.03
2018-06-18T06:41:28.589Z,81.54
2018-06-18T06:42:29.658Z,49.32
2018-06-18T06:43:28.779Z,81.30
2018-06-18T06:44:50.666Z,79.35
2018-06-18T06:45:50.666Z,61.77
2018-06-18T06:46:33.598Z,78.61
2018-06-18T06:47:59.154Z,81.05
2018-06-18T06:48:36.170Z,80.08
2018-06-18T06:52:07.711Z,81.05
2018-06-18T06:53:07.709Z,81.05
2018-06-18T06:54:01.311Z,81.05
2018-06-18T06:55:03.205Z,81.54
2018-06-18T06:56:02.236Z,83.01
2018-06-18T06:57:02.209Z,78.86
2018-06-18T07:00:54.330Z,63.23
2018-06-18T07:01:54.416Z,85.21
2018-06-18T07:02:57.468Z,80.57
2018-06-18T07:03:34.466Z,81.30
2018-06-18T07:04:48.467Z,82.03
2018-06-18T07:05:55.467Z,49.07
2018-06-18T07:06:34.472Z,77.39
2018-06-18T07:10:05.619Z,76.66
2018-06-18T07:11:05.738Z,85.94
2018-06-18T07:12:05.839Z,83.98
2018-06-18T07:13:06.752Z,54.20
2018-06-18T07:14:27.726Z,80.32
2018-06-18T07:15:06.727Z,85.21
2018-06-18T07:16:28.239Z,82.28
2018-06-18T07:17:07.226Z,50.05
2018-06-18T07:18:21.227Z,79.83
2018-06-18T07:19:07.228Z,82.03
2018-06-18T07:20:21.728Z,80.08
2018-06-18T07:21:07.730Z,83.01
2018-06-18T07:22:07.727Z,80.08
2018-06-18T07:23:07.728Z,84.23
2018-06-18T07:24:08.227Z,81.79
2018-06-18T07:25:08.229Z,82.03
2018-06-18T07:26:08.263Z,81.79
2018-06-18T07:27:08.232Z,81.30
2018-06-18T07:28:07.838Z,76.42
2018-06-18T07:32:01.114Z,80.32
2018-06-18T07:32:40.106Z,83.25
2018-06-18T07:33:39.727Z,83.25
2018-06-18T07:34:44.037Z,81.05
2018-06-18T07:36:03.080Z,81.54
2018-06-18T07:39:17.150Z,80.81
2018-06-18T07:40:12.221Z,77.15
2018-06-18T07:41:14.718Z,82.28
2018-06-18T07:42:12.718Z,67.14
2018-06-18T07:45:47.171Z,59.08
2018-06-18T07:46:44.688Z,80.08
2018-06-18T07:48:07.738Z,80.32
2018-06-18T07:48:50.742Z,64.94
2018-06-18T07:49:44.745Z,54.20
2018-06-18T07:50:44.735Z,79.59
2018-06-18T07:51:44.288Z,83.01
2018-06-18T07:53:06.235Z,59.33
2018-06-18T07:53:47.234Z,79.35
2018-06-18T07:54:45.236Z,83.50
2018-06-18T07:55:45.235Z,82.28
2018-06-18T07:56:44.873Z,71.78
2018-06-18T07:57:51.735Z,81.79
2018-06-18T07:58:51.739Z,62.50
2018-06-18T08:00:12.744Z,80.57
2018-06-18T08:00:46.237Z,84.23
2018-06-18T08:01:46.235Z,73.24
2018-06-18T08:02:46.239Z,80.32
2018-06-18T08:03:46.246Z,76.66
2018-06-18T08:05:00.735Z,86.43
2018-06-18T08:05:46.737Z,78.37
2018-06-18T08:07:47.737Z,81.54
2018-06-18T08:11:17.868Z,79.10
2018-06-18T08:12:18.518Z,82.03
2018-06-18T08:13:20.463Z,84.23
2018-06-18T08:14:18.989Z,47.85
2018-06-18T08:15:20.989Z,50.05
2018-06-18T08:16:20.444Z,83.25
2018-06-18T08:19:50.711Z,82.03
2018-06-18T08:21:12.716Z,83.01
2018-06-18T08:21:53.216Z,80.08
2018-06-18T08:22:50.442Z,82.28
2018-06-18T08:23:50.687Z,80.57
2018-06-18T08:24:51.211Z,79.59
2018-06-18T08:25:50.686Z,83.50
2018-06-18T08:26:51.720Z,80.32
2018-06-18T08:27:57.722Z,83.01
2018-06-18T08:28:51.711Z,74.95
2018-06-18T08:29:51.718Z,82.03
2018-06-18T08:34:58.405Z,83.01
2018-06-18T08:35:54.381Z,79.59
2018-06-18T08:36:54.482Z,81.30
2018-06-18T08:38:16.407Z,83.50
2018-06-18T08:39:16.407Z,81.54
2018-06-18T08:39:55.411Z,52.73
2018-06-18T08:41:16.407Z,85.21
2018-06-18T08:42:09.905Z,81.54
2018-06-18T08:42:57.904Z,84.23
2018-06-18T08:43:55.907Z,80.32
2018-06-18T08:45:16.905Z,61.52
2018-06-18T08:45:55.518Z,83.98
2018-06-18T08:46:58.404Z,51.76
2018-06-18T08:48:17.406Z,85.21
2018-06-18T08:48:56.406Z,84.47
2018-06-18T08:49:58.907Z,84.23
2018-06-18T08:51:10.906Z,63.72
2018-06-18T08:51:56.905Z,77.88
2018-06-18T08:52:56.905Z,83.25
2018-06-18T08:53:57.405Z,67.63
2018-06-18T08:54:57.406Z,53.71
2018-06-18T08:55:57.405Z,77.15
2018-06-18T08:56:57.417Z,62.26
2018-06-18T08:57:57.907Z,78.13
2018-06-18T09:01:29.812Z,90.33
2018-06-18T09:02:29.811Z,81.54
2018-06-18T09:03:29.287Z,73.73
2018-06-18T09:07:01.559Z,63.48
2018-06-18T09:08:03.561Z,77.39
2018-06-18T09:09:25.059Z,76.17
2018-06-18T09:10:08.056Z,60.79
2018-06-18T09:11:04.065Z,83.25
2018-06-18T09:12:02.059Z,79.59
2018-06-18T09:13:10.019Z,78.61
2018-06-18T09:14:29.559Z,58.35
2018-06-18T09:15:08.560Z,50.29
2018-06-18T09:16:02.124Z,70.31
2018-06-18T09:17:02.158Z,79.59
2018-06-18T09:18:17.062Z,85.45
2018-06-18T09:19:02.413Z,82.03
2018-06-18T09:20:05.060Z,79.35
2018-06-18T09:21:03.599Z,64.94
2018-06-18T09:22:05.560Z,80.57
2018-06-18T09:23:03.558Z,83.50
2018-06-18T09:24:03.038Z,82.28
2018-06-18T09:25:31.060Z,83.74
2018-06-18T09:26:03.300Z,83.50
2018-06-18T09:27:03.422Z,82.28
2018-06-18T09:28:03.538Z,81.05
2018-06-18T09:29:04.571Z,80.57
2018-06-18T09:30:03.792Z,77.64
2018-06-18T09:31:04.559Z,79.10
2018-06-18T09:32:04.077Z,79.10
2018-06-18T09:33:26.060Z,60.06
2018-06-18T09:36:38.458Z,77.64
2018-06-18T09:37:36.457Z,80.81
2018-06-18T09:38:36.084Z,80.08
2018-06-18T09:39:42.958Z,83.98
2018-06-18T09:40:36.955Z,77.15
2018-06-18T09:41:36.957Z,80.57
2018-06-18T09:42:37.464Z,82.76
2018-06-18T09:43:44.889Z,84.23
2018-06-18T09:44:36.835Z,78.61
2018-06-18T09:45:36.940Z,80.08
2018-06-18T09:46:37.976Z,80.57
2018-06-18T09:50:09.521Z,81.30
2018-06-18T09:51:09.852Z,79.83
2018-06-18T09:52:23.851Z,79.59
2018-06-18T09:55:41.268Z,82.28
2018-06-18T09:57:02.241Z,81.54
2018-06-18T09:58:04.718Z,79.35
2018-06-18T09:59:02.746Z,57.62
2018-06-18T09:59:41.746Z,81.05
2018-06-18T10:00:44.255Z,80.32
2018-06-18T10:05:46.944Z,77.64
2018-06-18T10:06:44.415Z,47.36
2018-06-18T10:11:47.475Z,79.83
2018-06-18T10:13:09.163Z,81.54
2018-06-18T10:18:14.259Z,79.10
2018-06-18T10:18:51.251Z,77.39
2018-06-18T10:19:50.856Z,49.56
2018-06-18T10:20:53.684Z,78.13
2018-06-18T10:21:51.751Z,81.79
2018-06-18T10:22:53.253Z,83.25
2018-06-18T10:23:54.250Z,82.76
2018-06-18T10:24:58.072Z,73.00
2018-06-18T10:25:52.251Z,77.64
2018-06-18T10:26:53.268Z,77.39
2018-06-18T10:28:15.765Z,80.32
2018-06-18T10:28:52.747Z,102.54
2018-06-18T10:32:45.263Z,81.30
2018-06-18T10:33:45.266Z,81.05
2018-06-18T10:34:23.874Z,79.83
2018-06-18T10:38:16.524Z,83.01
2018-06-18T10:39:10.637Z,80.57
2018-06-18T10:42:48.918Z,81.30
2018-06-18T10:43:27.913Z,60.06
2018-06-18T10:44:27.615Z,70.07
2018-06-18T10:45:30.411Z,82.52
2018-06-18T10:48:59.820Z,78.13
2018-06-18T10:50:00.307Z,80.32
2018-06-18T10:51:00.310Z,79.83
2018-06-18T10:51:59.539Z,82.52
2018-06-18T10:53:00.311Z,82.28
2018-06-18T10:54:00.310Z,79.10
2018-06-18T10:55:00.812Z,80.57
2018-06-18T10:56:00.869Z,74.71
2018-06-18T10:57:00.890Z,80.57
2018-06-18T10:58:00.809Z,84.23
2018-06-18T10:59:00.812Z,55.66
2018-06-18T11:00:07.698Z,53.22
2018-06-18T11:03:34.729Z,80.08
2018-06-18T11:04:32.749Z,79.10
2018-06-18T11:11:20.394Z,81.05
2018-06-18T11:11:59.891Z,81.54
2018-06-18T11:13:20.890Z,76.90
2018-06-18T11:13:59.891Z,81.54
2018-06-18T11:14:59.903Z,83.01
2018-06-18T11:18:45.688Z,56.40
2018-06-18T11:19:31.681Z,78.86
2018-06-18T11:20:35.112Z,81.05
2018-06-18T11:24:09.530Z,56.15
2018-06-18T11:25:05.496Z,60.79
2018-06-18T11:26:18.105Z,83.74
2018-06-18T11:27:04.082Z,78.37
2018-06-18T11:28:04.047Z,81.05
2018-06-18T11:29:04.027Z,84.72
2018-06-18T11:30:04.577Z,78.13
2018-06-18T11:33:36.386Z,82.52
2018-06-18T11:34:38.354Z,82.03
2018-06-18T11:35:56.922Z,80.32
2018-06-18T11:36:38.426Z,71.53
2018-06-18T11:42:39.841Z,78.37
2018-06-18T11:43:39.198Z,80.57
2018-06-18T11:44:41.841Z,81.05
2018-06-18T11:48:11.034Z,81.79
2018-06-18T11:51:43.717Z,81.30
2018-06-18T11:52:43.479Z,77.15
2018-06-18T11:54:04.743Z,82.03
2018-06-18T11:54:49.742Z,88.62
2018-06-18T11:56:03.986Z,83.01
2018-06-18T11:56:43.745Z,66.41
2018-06-18T11:57:43.945Z,82.76
2018-06-18T11:58:44.243Z,59.57
2018-06-18T12:00:10.676Z,55.66
2018-06-18T12:05:08.183Z,79.83
2018-06-18T12:05:47.175Z,77.15
2018-06-18T12:07:08.723Z,83.01
2018-06-18T12:08:07.919Z,83.01
2018-06-18T12:08:47.687Z,81.79
2018-06-18T12:09:47.756Z,80.32
2018-06-18T12:13:19.442Z,84.47
2018-06-18T12:14:19.443Z,75.93
2018-06-18T12:19:02.410Z,83.01
2018-06-18T12:20:03.279Z,80.57
2018-06-18T12:21:03.280Z,83.98
2018-06-18T12:22:03.282Z,80.08
2018-06-18T12:23:03.823Z,83.74
2018-06-18T12:26:35.201Z,82.28
2018-06-18T12:27:35.195Z,85.21
2018-06-18T12:36:45.225Z,83.01
2018-06-18T12:37:43.740Z,80.81
2018-06-18T12:38:43.725Z,85.21
2018-06-18T12:39:43.726Z,80.32
2018-06-18T12:40:43.204Z,79.35
2018-06-18T12:41:43.749Z,79.59
2018-06-18T12:43:05.236Z,83.74
2018-06-18T12:43:43.591Z,46.63
2018-06-18T12:44:44.226Z,81.79
2018-06-18T12:45:43.829Z,64.94
2018-06-18T12:46:44.018Z,82.28
2018-06-18T12:47:44.784Z,81.30
2018-06-18T12:48:44.729Z,84.72
2018-06-18T12:49:45.228Z,78.86
2018-06-18T12:51:06.226Z,83.25
2018-06-18T12:51:44.584Z,80.81
2018-06-18T12:53:06.263Z,82.52
2018-06-18T12:53:44.843Z,56.64
2018-06-18T12:55:05.942Z,82.76
2018-06-18T12:56:06.727Z,80.81
2018-06-18T12:56:45.726Z,52.73
2018-06-18T12:58:08.159Z,84.47
2018-06-18T12:58:45.472Z,80.32
2018-06-18T13:00:00.235Z,83.01
2018-06-18T13:00:46.227Z,52.00
2018-06-18T13:04:18.002Z,81.54
2018-06-18T13:05:18.002Z,81.05
2018-06-18T13:06:38.588Z,81.05
2018-06-18T13:09:49.865Z,79.83
2018-06-18T13:10:49.346Z,81.79
2018-06-18T13:12:11.363Z,79.35
2018-06-18T13:12:50.363Z,82.28
2018-06-18T13:13:50.361Z,80.57
2018-06-18T13:14:49.848Z,84.96
2018-06-18T13:15:50.863Z,84.47
2018-06-18T13:16:50.868Z,82.03
2018-06-18T13:17:50.863Z,58.59
2018-06-18T13:18:50.864Z,79.83
2018-06-18T13:19:50.470Z,82.76
2018-06-18T13:20:51.363Z,84.72
2018-06-18T13:21:50.719Z,80.57
2018-06-18T13:22:53.295Z,83.74
2018-06-18T13:23:51.863Z,80.57
2018-06-18T13:25:14.864Z,77.64
2018-06-18T13:25:51.864Z,56.64
2018-06-18T13:26:51.865Z,79.83
2018-06-18T13:28:13.364Z,83.01
2018-06-18T13:28:51.592Z,79.59
2018-06-18T13:30:12.676Z,81.30
2018-06-18T13:30:54.362Z,60.06
2018-06-18T13:34:25.464Z,78.61
2018-06-18T13:35:24.040Z,80.32
2018-06-18T13:36:23.642Z,46.63
2018-06-18T13:37:32.962Z,84.23
2018-06-18T13:38:24.566Z,60.55
2018-06-18T13:39:24.530Z,79.10
2018-06-18T13:40:46.029Z,47.85
2018-06-18T13:43:56.296Z,77.39
2018-06-18T13:44:56.926Z,65.92
2018-06-18T13:45:59.426Z,81.05
2018-06-18T13:46:56.763Z,80.57
2018-06-18T13:47:57.427Z,81.54
2018-06-18T13:48:56.941Z,82.28
2018-06-18T13:50:18.926Z,83.74
2018-06-18T13:51:03.922Z,78.37
2018-06-18T13:52:03.927Z,83.25
2018-06-18T13:53:18.388Z,82.28
2018-06-18T13:54:19.426Z,80.32
2018-06-18T13:55:18.640Z,63.23
2018-06-18T13:55:58.432Z,84.47
2018-06-18T13:56:58.428Z,82.76
2018-06-18T13:58:12.937Z,81.54
2018-06-18T13:58:58.930Z,85.21
2018-06-18T14:00:12.959Z,70.80
2018-06-18T14:01:19.928Z,80.32
2018-06-18T14:02:05.426Z,79.83
2018-06-18T14:02:59.428Z,82.52
2018-06-18T14:04:21.866Z,80.81
2018-06-18T14:04:59.428Z,81.05
2018-06-18T14:06:22.932Z,80.57
2018-06-18T14:26:48.754Z,80.57
2018-06-18T14:28:07.778Z,82.28
2018-06-18T14:29:10.255Z,81.30
2018-06-18T14:30:08.261Z,81.79
2018-06-18T14:30:47.254Z,52.49
2018-06-18T14:44:33.927Z,50.05
2018-06-18T14:45:25.982Z,82.03
2018-06-18T14:46:39.983Z,82.03
2018-06-18T14:50:05.086Z,64.94
2018-06-18T14:56:00.888Z,81.79
2018-06-18T14:57:00.833Z,81.79
2018-06-18T14:58:21.422Z,78.13
2018-06-18T14:59:07.334Z,79.10
2018-06-18T15:03:05.026Z,81.79
2018-06-18T15:03:51.171Z,77.39
2018-06-18T15:04:51.536Z,77.64
2018-06-18T15:05:50.772Z,81.05
2018-06-18T15:07:13.957Z,82.03
2018-06-18T15:07:51.526Z,81.30
2018-06-18T15:08:52.033Z,83.01
2018-06-18T15:09:52.027Z,81.79
2018-06-18T15:10:52.026Z,82.03
2018-06-18T15:11:52.025Z,82.28
2018-06-18T15:12:54.566Z,83.01
2018-06-18T15:13:52.621Z,80.08
2018-06-18T15:14:52.532Z,83.50
2018-06-18T15:15:52.608Z,81.05
2018-06-18T15:16:53.025Z,80.32
2018-06-18T15:18:14.026Z,82.76
2018-06-18T15:18:52.382Z,83.01
2018-06-18T15:19:53.025Z,82.28
2018-06-18T15:21:13.616Z,80.81
2018-06-18T15:22:14.526Z,50.05
2018-06-18T15:22:54.494Z,81.30
2018-06-18T15:23:55.466Z,87.89
2018-06-18T15:25:15.040Z,75.93
2018-06-18T15:25:55.005Z,81.05
2018-06-18T15:26:53.460Z,70.07
2018-06-18T15:27:54.026Z,81.54
2018-06-18T15:28:54.526Z,82.76
2018-06-18T15:29:54.526Z,78.37
2018-06-18T15:30:54.572Z,80.81
2018-06-18T15:32:17.114Z,80.57
2018-06-18T15:32:55.028Z,79.83
2018-06-18T15:33:55.027Z,82.52
2018-06-18T15:34:55.030Z,82.03
2018-06-18T15:35:55.027Z,80.08
2018-06-18T15:37:16.530Z,53.47
2018-06-18T15:37:55.531Z,83.50
2018-06-18T15:38:55.538Z,76.90
2018-06-18T15:39:55.527Z,80.08
2018-06-18T15:40:56.027Z,77.15
2018-06-18T15:41:56.028Z,80.32
2018-06-18T15:42:56.027Z,79.83
2018-06-18T15:43:56.053Z,79.59
2018-06-18T15:44:56.527Z,84.96
2018-06-18T15:46:17.533Z,81.30
2018-06-18T15:46:56.528Z,84.47
2018-06-18T15:47:56.527Z,81.54
2018-06-18T15:49:03.029Z,78.86
2018-06-18T15:49:58.462Z,76.90
2018-06-18T15:50:57.961Z,81.05
2018-06-18T15:51:58.960Z,82.52
2018-06-18T15:52:57.105Z,80.57
2018-06-18T15:56:29.331Z,82.03
2018-06-18T15:57:29.256Z,78.86
2018-06-18T15:58:29.754Z,78.13
2018-06-18T15:59:29.749Z,77.15
2018-06-18T16:00:29.750Z,80.32
2018-06-18T16:01:29.752Z,81.05
2018-06-18T16:02:31.248Z,77.39
2018-06-18T16:03:30.254Z,80.32
2018-06-18T16:04:30.248Z,54.44
2018-06-18T16:05:30.249Z,76.90
2018-06-18T16:06:44.750Z,83.01
2018-06-18T16:07:30.756Z,80.32
2018-06-18T16:08:30.752Z,81.54
2018-06-18T16:09:30.756Z,77.15
2018-06-18T16:10:31.250Z,80.08
2018-06-18T16:11:52.250Z,81.05
2018-06-18T16:12:31.250Z,55.66
2018-06-18T16:13:52.251Z,81.30
2018-06-18T16:14:30.857Z,83.25